sensor_id;sensor_type;location;lat;lon;timestamp;P1;durP1;ratioP1;P2;durP2;ratioP2
75356;SDS011;63946;51.986;5.930;2023-09-30T06:04:08;11.70;;;7.75;;
75356;SDS011;63946;51.986;5.930;2023-09-30T06:06:37;12.43;;;8.60;;
75356;SDS011;63946;51.986;5.930;2023-09-30T06:09:08;12.82;;;8.80;;
75356;SDS011;63946;51.986;5.930;2023-09-30T06:11:37;11.90;;;7.28;;
75356;SDS011;63946;51.986;5.930;2023-09-30T06:14:09;9.20;;;7.18;;
75356;SDS011;63946;51.986;5.930;2023-09-30T06:16:37;14.88;;;9.00;;
75356;SDS011;63946;51.986;5.930;2023-09-30T06:19:08;10.20;;;7.15;;
75356;SDS011;63946;51.986;5.930;2023-09-30T06:21:37;12.68;;;6.82;;
75356;SDS011;63946;51.986;5.930;2023-09-30T06:24:06;12.63;;;8.38;;
75356;SDS011;63946;51.986;5.930;2023-09-30T06:26:35;13.40;;;7.63;;
75356;SDS011;63946;51.986;5.930;2023-09-30T06:29:04;11.50;;;7.07;;
75356;SDS011;63946;51.986;5.930;2023-09-30T06:31:33;10.60;;;7.82;;
75356;SDS011;63946;51.986;5.930;2023-09-30T06:34:02;8.98;;;6.57;;
75356;SDS011;63946;51.986;5.930;2023-09-30T06:36:32;10.32;;;7.70;;
75356;SDS011;63946;51.986;5.930;2023-09-30T06:39:03;10.00;;;7.53;;
75356;SDS011;63946;51.986;5.930;2023-09-30T06:41:34;9.55;;;7.18;;
75356;SDS011;63946;51.986;5.930;2023-09-30T06:44:06;12.07;;;8.40;;
75356;SDS011;63946;51.986;5.930;2023-09-30T06:46:36;11.93;;;8.50;;
75356;SDS011;63946;51.986;5.930;2023-09-30T06:49:05;10.73;;;7.07;;
75356;SDS011;63946;51.986;5.930;2023-09-30T06:51:33;9.05;;;6.40;;
75356;SDS011;63946;51.986;5.930;2023-09-30T06:54:05;13.07;;;7.57;;
75356;SDS011;63946;51.986;5.930;2023-09-30T06:56:34;12.98;;;7.95;;
75356;SDS011;63946;51.986;5.930;2023-09-30T06:59:05;9.60;;;7.50;;
75356;SDS011;63946;51.986;5.930;2023-09-30T07:01:36;12.75;;;7.88;;
75356;SDS011;63946;51.986;5.930;2023-09-30T07:04:06;10.27;;;7.43;;
75356;SDS011;63946;51.986;5.930;2023-09-30T07:06:41;14.10;;;8.88;;
75356;SDS011;63946;51.986;5.930;2023-09-30T07:09:10;12.35;;;7.55;;
75356;SDS011;63946;51.986;5.930;2023-09-30T07:11:42;13.18;;;8.30;;
75356;SDS011;63946;51.986;5.930;2023-09-30T07:14:11;15.65;;;10.38;;
75356;SDS011;63946;51.986;5.930;2023-09-30T07:16:40;12.45;;;7.88;;
75356;SDS011;63946;51.986;5.930;2023-09-30T07:19:10;11.60;;;7.57;;
75356;SDS011;63946;51.986;5.930;2023-09-30T07:21:40;12.77;;;8.23;;
75356;SDS011;63946;51.986;5.930;2023-09-30T07:24:09;14.88;;;8.95;;
75356;SDS011;63946;51.986;5.930;2023-09-30T07:26:38;10.45;;;6.93;;
75356;SDS011;63946;51.986;5.930;2023-09-30T07:29:08;11.35;;;8.40;;
75356;SDS011;63946;51.986;5.930;2023-09-30T07:31:37;10.15;;;7.30;;
75356;SDS011;63946;51.986;5.930;2023-09-30T07:34:09;12.48;;;8.10;;
75356;SDS011;63946;51.986;5.930;2023-09-30T07:36:38;14.13;;;7.75;;
75356;SDS011;63946;51.986;5.930;2023-09-30T07:39:08;13.05;;;8.05;;
75356;SDS011;63946;51.986;5.930;2023-09-30T07:41:37;13.43;;;8.45;;
75356;SDS011;63946;51.986;5.930;2023-09-30T07:44:06;14.55;;;9.18;;
75356;SDS011;63946;51.986;5.930;2023-09-30T07:46:35;13.68;;;7.47;;
75356;SDS011;63946;51.986;5.930;2023-09-30T07:49:08;12.10;;;7.85;;
75356;SDS011;63946;51.986;5.930;2023-09-30T07:51:40;14.85;;;8.00;;
75356;SDS011;63946;51.986;5.930;2023-09-30T07:54:09;12.95;;;8.00;;
75356;SDS011;63946;51.986;5.930;2023-09-30T07:56:43;14.45;;;8.13;;
75356;SDS011;63946;51.986;5.930;2023-09-30T07:59:19;15.05;;;7.95;;
75356;SDS011;63946;51.986;5.930;2023-09-30T08:01:49;17.77;;;9.80;;
75356;SDS011;63946;51.986;5.930;2023-09-30T08:04:21;14.10;;;8.32;;
75356;SDS011;63946;51.986;5.930;2023-09-30T08:06:53;14.07;;;8.73;;
75356;SDS011;63946;51.986;5.930;2023-09-30T08:09:24;14.02;;;8.85;;
75356;SDS011;63946;51.986;5.930;2023-09-30T08:11:53;17.02;;;9.27;;
75356;SDS011;63946;51.986;5.930;2023-09-30T08:14:23;13.20;;;7.88;;
75356;SDS011;63946;51.986;5.930;2023-09-30T08:16:52;16.10;;;8.65;;
75356;SDS011;63946;51.986;5.930;2023-09-30T08:19:21;13.25;;;8.20;;
75356;SDS011;63946;51.986;5.930;2023-09-30T08:21:53;16.15;;;8.40;;
75356;SDS011;63946;51.986;5.930;2023-09-30T08:24:22;17.65;;;9.10;;
75356;SDS011;63946;51.986;5.930;2023-09-30T08:26:57;12.70;;;7.82;;
75356;SDS011;63946;51.986;5.930;2023-09-30T08:29:35;14.40;;;8.23;;
75356;SDS011;63946;51.986;5.930;2023-09-30T08:32:04;15.23;;;7.40;;
75356;SDS011;63946;51.986;5.930;2023-09-30T08:34:36;15.15;;;7.90;;
75356;SDS011;63946;51.986;5.930;2023-09-30T08:37:06;12.63;;;7.97;;
75356;SDS011;63946;51.986;5.930;2023-09-30T08:39:39;14.40;;;8.23;;
75356;SDS011;63946;51.986;5.930;2023-09-30T08:42:12;12.13;;;7.30;;
75356;SDS011;63946;51.986;5.930;2023-09-30T08:44:46;10.80;;;7.15;;
75356;SDS011;63946;51.986;5.930;2023-09-30T08:47:16;12.65;;;8.02;;
75356;SDS011;63946;51.986;5.930;2023-09-30T08:49:50;16.02;;;8.00;;
75356;SDS011;63946;51.986;5.930;2023-09-30T08:52:24;15.45;;;9.07;;
75356;SDS011;63946;51.986;5.930;2023-09-30T08:54:55;14.40;;;10.07;;
75356;SDS011;63946;51.986;5.930;2023-09-30T08:57:42;10.98;;;7.85;;
75356;SDS011;63946;51.986;5.930;2023-09-30T09:00:11;13.23;;;7.57;;
75356;SDS011;63946;51.986;5.930;2023-09-30T09:02:45;18.02;;;9.02;;
75356;SDS011;63946;51.986;5.930;2023-09-30T09:05:20;13.65;;;8.13;;
75356;SDS011;63946;51.986;5.930;2023-09-30T09:07:52;15.70;;;8.32;;
75356;SDS011;63946;51.986;5.930;2023-09-30T09:10:24;13.25;;;7.03;;
75356;SDS011;63946;51.986;5.930;2023-09-30T09:13:04;13.63;;;8.38;;
75356;SDS011;63946;51.986;5.930;2023-09-30T09:18:05;12.43;;;7.32;;
75356;SDS011;63946;51.986;5.930;2023-09-30T09:20:45;11.05;;;7.00;;
75356;SDS011;63946;51.986;5.930;2023-09-30T09:23:17;10.63;;;7.68;;
75356;SDS011;63946;51.986;5.930;2023-09-30T09:25:47;15.50;;;8.43;;
75356;SDS011;63946;51.986;5.930;2023-09-30T09:28:19;13.52;;;8.02;;
75356;SDS011;63946;51.986;5.930;2023-09-30T09:31:20;12.25;;;7.68;;
75356;SDS011;63946;51.986;5.930;2023-09-30T09:33:55;12.48;;;7.47;;
75356;SDS011;63946;51.986;5.930;2023-09-30T09:36:41;12.50;;;7.75;;
75356;SDS011;63946;51.986;5.930;2023-09-30T09:39:18;13.90;;;7.78;;
75356;SDS011;63946;51.986;5.930;2023-09-30T09:42:00;15.82;;;7.05;;
75356;SDS011;63946;51.986;5.930;2023-09-30T09:44:49;10.27;;;7.13;;
75356;SDS011;63946;51.986;5.930;2023-09-30T09:47:21;11.38;;;7.57;;
75356;SDS011;63946;51.986;5.930;2023-09-30T09:49:57;12.45;;;7.10;;
75356;SDS011;63946;51.986;5.930;2023-09-30T09:52:29;12.82;;;7.82;;
75356;SDS011;63946;51.986;5.930;2023-09-30T09:54:59;12.63;;;6.72;;
75356;SDS011;63946;51.986;5.930;2023-09-30T09:57:34;11.75;;;6.85;;
75356;SDS011;63946;51.986;5.930;2023-09-30T10:00:11;14.15;;;8.00;;
75356;SDS011;63946;51.986;5.930;2023-09-30T10:02:51;11.43;;;6.47;;
75356;SDS011;63946;51.986;5.930;2023-09-30T10:05:22;12.95;;;6.47;;
75356;SDS011;63946;51.986;5.930;2023-09-30T10:07:57;11.70;;;6.75;;
75356;SDS011;63946;51.986;5.930;2023-09-30T10:10:44;15.25;;;7.03;;
75356;SDS011;63946;51.986;5.930;2023-09-30T10:24:55;8.63;;;5.72;;
75356;SDS011;63946;51.986;5.930;2023-09-30T10:30:06;14.23;;;7.10;;
75356;SDS011;63946;51.986;5.930;2023-09-30T10:40:52;8.77;;;5.28;;
75356;SDS011;63946;51.986;5.930;2023-09-30T10:43:30;9.43;;;5.47;;
75356;SDS011;63946;51.986;5.930;2023-09-30T10:49:15;13.02;;;6.45;;
75356;SDS011;63946;51.986;5.930;2023-09-30T10:52:04;9.00;;;4.45;;
75356;SDS011;63946;51.986;5.930;2023-09-30T10:54:36;10.77;;;5.22;;
75356;SDS011;63946;51.986;5.930;2023-09-30T10:57:05;9.93;;;5.22;;
75356;SDS011;63946;51.986;5.930;2023-09-30T11:00:09;9.85;;;5.13;;
75356;SDS011;63946;51.986;5.930;2023-09-30T11:02:50;7.72;;;4.55;;
75356;SDS011;63946;51.986;5.930;2023-09-30T11:05:20;9.30;;;3.70;;
75356;SDS011;63946;51.986;5.930;2023-09-30T11:07:53;11.68;;;4.35;;
75356;SDS011;63946;51.986;5.930;2023-09-30T11:10:29;7.43;;;3.50;;
75356;SDS011;63946;51.986;5.930;2023-09-30T11:13:01;7.50;;;3.70;;
75356;SDS011;63946;51.986;5.930;2023-09-30T11:15:43;11.18;;;3.78;;
75356;SDS011;63946;51.986;5.930;2023-09-30T11:18:18;9.55;;;4.00;;
75356;SDS011;63946;51.986;5.930;2023-09-30T11:20:53;8.30;;;4.22;;
75356;SDS011;63946;51.986;5.930;2023-09-30T11:23:48;8.05;;;3.00;;
75356;SDS011;63946;51.986;5.930;2023-09-30T11:26:29;7.82;;;4.00;;
75356;SDS011;63946;51.986;5.930;2023-09-30T11:29:14;7.28;;;3.40;;
75356;SDS011;63946;51.986;5.930;2023-09-30T11:31:49;7.55;;;4.05;;
75356;SDS011;63946;51.986;5.930;2023-09-30T11:34:18;9.93;;;3.38;;
75356;SDS011;63946;51.986;5.930;2023-09-30T11:36:49;10.88;;;3.85;;
75356;SDS011;63946;51.986;5.930;2023-09-30T11:39:24;10.85;;;3.20;;
75356;SDS011;63946;51.986;5.930;2023-09-30T11:41:59;9.73;;;3.83;;
75356;SDS011;63946;51.986;5.930;2023-09-30T11:44:30;8.30;;;3.30;;
75356;SDS011;63946;51.986;5.930;2023-09-30T11:47:30;6.90;;;3.10;;
75356;SDS011;63946;51.986;5.930;2023-09-30T11:50:00;6.07;;;3.20;;
75356;SDS011;63946;51.986;5.930;2023-09-30T11:52:32;7.15;;;3.40;;
75356;SDS011;63946;51.986;5.930;2023-09-30T11:55:15;6.15;;;2.33;;
75356;SDS011;63946;51.986;5.930;2023-09-30T11:57:50;6.63;;;3.30;;
75356;SDS011;63946;51.986;5.930;2023-09-30T12:00:52;12.30;;;3.75;;
75356;SDS011;63946;51.986;5.930;2023-09-30T12:03:51;8.40;;;3.13;;
75356;SDS011;63946;51.986;5.930;2023-09-30T12:07:01;5.97;;;2.33;;
75356;SDS011;63946;51.986;5.930;2023-09-30T12:16:41;7.85;;;3.08;;
75356;SDS011;63946;51.986;5.930;2023-09-30T12:26:40;8.48;;;2.83;;
75356;SDS011;63946;51.986;5.930;2023-09-30T12:29:45;7.38;;;3.35;;
75356;SDS011;63946;51.986;5.930;2023-09-30T12:32:24;8.60;;;2.47;;
75356;SDS011;63946;51.986;5.930;2023-09-30T12:38:37;5.38;;;2.50;;
75356;SDS011;63946;51.986;5.930;2023-09-30T12:41:34;8.52;;;3.13;;
75356;SDS011;63946;51.986;5.930;2023-09-30T12:44:05;6.57;;;2.72;;
75356;SDS011;63946;51.986;5.930;2023-09-30T12:46:58;5.35;;;2.72;;
75356;SDS011;63946;51.986;5.930;2023-09-30T12:52:39;6.53;;;3.17;;
75356;SDS011;63946;51.986;5.930;2023-09-30T12:55:08;10.18;;;3.50;;
75356;SDS011;63946;51.986;5.930;2023-09-30T12:57:37;8.18;;;3.22;;
75356;SDS011;63946;51.986;5.930;2023-09-30T13:00:07;4.68;;;2.80;;
75356;SDS011;63946;51.986;5.930;2023-09-30T13:02:45;6.30;;;2.90;;
75356;SDS011;63946;51.986;5.930;2023-09-30T13:05:22;6.95;;;2.60;;
75356;SDS011;63946;51.986;5.930;2023-09-30T13:07:52;6.03;;;3.20;;
75356;SDS011;63946;51.986;5.930;2023-09-30T13:10:24;7.53;;;2.58;;
75356;SDS011;63946;51.986;5.930;2023-09-30T13:13:01;6.45;;;2.83;;
75356;SDS011;63946;51.986;5.930;2023-09-30T13:15:32;6.97;;;2.63;;
75356;SDS011;63946;51.986;5.930;2023-09-30T13:18:07;6.47;;;2.83;;
75356;SDS011;63946;51.986;5.930;2023-09-30T13:20:48;9.32;;;2.80;;
75356;SDS011;63946;51.986;5.930;2023-09-30T13:23:40;9.48;;;3.10;;
75356;SDS011;63946;51.986;5.930;2023-09-30T13:26:20;9.38;;;3.15;;
75356;SDS011;63946;51.986;5.930;2023-09-30T13:28:56;7.35;;;2.90;;
75356;SDS011;63946;51.986;5.930;2023-09-30T13:31:39;6.22;;;3.22;;
75356;SDS011;63946;51.986;5.930;2023-09-30T13:34:08;6.10;;;2.70;;
75356;SDS011;63946;51.986;5.930;2023-09-30T13:36:57;7.57;;;3.10;;
75356;SDS011;63946;51.986;5.930;2023-09-30T13:40:12;9.52;;;3.53;;
75356;SDS011;63946;51.986;5.930;2023-09-30T13:42:57;9.77;;;4.35;;
75356;SDS011;63946;51.986;5.930;2023-09-30T13:45:49;7.72;;;3.55;;
75356;SDS011;63946;51.986;5.930;2023-09-30T13:48:27;7.47;;;3.53;;
75356;SDS011;63946;51.986;5.930;2023-09-30T13:51:06;8.40;;;3.58;;
75356;SDS011;63946;51.986;5.930;2023-09-30T13:53:37;6.72;;;3.20;;
75356;SDS011;63946;51.986;5.930;2023-09-30T13:56:26;8.43;;;3.97;;
75356;SDS011;63946;51.986;5.930;2023-09-30T13:59:11;9.65;;;4.03;;
75356;SDS011;63946;51.986;5.930;2023-09-30T14:04:51;7.97;;;3.50;;
75356;SDS011;63946;51.986;5.930;2023-09-30T14:07:25;7.55;;;3.90;;
75356;SDS011;63946;51.986;5.930;2023-09-30T14:09:58;9.57;;;4.13;;
75356;SDS011;63946;51.986;5.930;2023-09-30T14:12:51;9.10;;;3.90;;
75356;SDS011;63946;51.986;5.930;2023-09-30T14:15:24;7.60;;;4.10;;
75356;SDS011;63946;51.986;5.930;2023-09-30T14:17:55;10.75;;;4.55;;
75356;SDS011;63946;51.986;5.930;2023-09-30T14:20:30;11.13;;;4.88;;
75356;SDS011;63946;51.986;5.930;2023-09-30T14:22:59;8.05;;;4.35;;
75356;SDS011;63946;51.986;5.930;2023-09-30T14:25:31;6.57;;;3.40;;
75356;SDS011;63946;51.986;5.930;2023-09-30T14:28:03;7.95;;;4.32;;
75356;SDS011;63946;51.986;5.930;2023-09-30T14:30:41;6.13;;;3.53;;
75356;SDS011;63946;51.986;5.930;2023-09-30T14:33:15;9.00;;;4.03;;
75356;SDS011;63946;51.986;5.930;2023-09-30T14:38:37;11.10;;;3.95;;
75356;SDS011;63946;51.986;5.930;2023-09-30T14:41:18;7.18;;;3.47;;
75356;SDS011;63946;51.986;5.930;2023-09-30T14:43:50;7.70;;;4.15;;
75356;SDS011;63946;51.986;5.930;2023-09-30T14:46:19;8.90;;;3.90;;
75356;SDS011;63946;51.986;5.930;2023-09-30T14:48:52;8.50;;;3.78;;
75356;SDS011;63946;51.986;5.930;2023-09-30T14:51:24;11.60;;;4.03;;
75356;SDS011;63946;51.986;5.930;2023-09-30T14:53:53;9.48;;;4.38;;
75356;SDS011;63946;51.986;5.930;2023-09-30T14:56:23;9.10;;;4.50;;
75356;SDS011;63946;51.986;5.930;2023-09-30T14:58:55;9.05;;;4.15;;
75356;SDS011;63946;51.986;5.930;2023-09-30T15:01:29;11.13;;;4.30;;
75356;SDS011;63946;51.986;5.930;2023-09-30T15:04:01;7.72;;;4.32;;
75356;SDS011;63946;51.986;5.930;2023-09-30T15:06:33;8.23;;;4.72;;
75356;SDS011;63946;51.986;5.930;2023-09-30T15:09:04;8.63;;;4.32;;
75356;SDS011;63946;51.986;5.930;2023-09-30T15:11:37;7.38;;;4.05;;
75356;SDS011;63946;51.986;5.930;2023-09-30T15:14:24;8.80;;;4.55;;
75356;SDS011;63946;51.986;5.930;2023-09-30T15:17:06;12.23;;;4.60;;
75356;SDS011;63946;51.986;5.930;2023-09-30T15:19:38;10.23;;;4.78;;
75356;SDS011;63946;51.986;5.930;2023-09-30T15:22:09;7.93;;;4.10;;
75356;SDS011;63946;51.986;5.930;2023-09-30T15:24:38;9.30;;;4.35;;
75356;SDS011;63946;51.986;5.930;2023-09-30T15:27:13;7.85;;;4.20;;
75356;SDS011;63946;51.986;5.930;2023-09-30T15:29:44;6.93;;;4.13;;
75356;SDS011;63946;51.986;5.930;2023-09-30T15:32:21;7.55;;;4.50;;
75356;SDS011;63946;51.986;5.930;2023-09-30T15:34:56;9.48;;;5.03;;
75356;SDS011;63946;51.986;5.930;2023-09-30T15:37:28;7.85;;;5.07;;
75356;SDS011;63946;51.986;5.930;2023-09-30T15:40:00;10.98;;;5.05;;
75356;SDS011;63946;51.986;5.930;2023-09-30T15:42:34;10.50;;;4.80;;
75356;SDS011;63946;51.986;5.930;2023-09-30T15:45:06;10.50;;;4.72;;
75356;SDS011;63946;51.986;5.930;2023-09-30T15:47:38;8.27;;;4.70;;
75356;SDS011;63946;51.986;5.930;2023-09-30T15:50:10;8.73;;;3.65;;
75356;SDS011;63946;51.986;5.930;2023-09-30T15:52:40;9.77;;;4.43;;
75356;SDS011;63946;51.986;5.930;2023-09-30T15:55:10;10.27;;;4.38;;
75356;SDS011;63946;51.986;5.930;2023-09-30T15:57:39;7.30;;;3.67;;
75356;SDS011;63946;51.986;5.930;2023-09-30T16:00:10;8.57;;;4.70;;
75356;SDS011;63946;51.986;5.930;2023-09-30T16:02:46;8.73;;;3.88;;
75356;SDS011;63946;51.986;5.930;2023-09-30T16:05:18;9.70;;;4.60;;
75356;SDS011;63946;51.986;5.930;2023-09-30T16:07:53;6.35;;;3.70;;
75356;SDS011;63946;51.986;5.930;2023-09-30T16:10:27;7.47;;;4.70;;
75356;SDS011;63946;51.986;5.930;2023-09-30T16:13:00;7.10;;;4.13;;
75356;SDS011;63946;51.986;5.930;2023-09-30T16:15:37;8.55;;;4.00;;
75356;SDS011;63946;51.986;5.930;2023-09-30T16:18:11;9.25;;;4.22;;
75356;SDS011;63946;51.986;5.930;2023-09-30T16:20:42;8.88;;;3.90;;
75356;SDS011;63946;51.986;5.930;2023-09-30T16:23:15;8.82;;;3.40;;
75356;SDS011;63946;51.986;5.930;2023-09-30T16:25:45;6.53;;;3.40;;
75356;SDS011;63946;51.986;5.930;2023-09-30T16:28:20;6.70;;;3.72;;
75356;SDS011;63946;51.986;5.930;2023-09-30T16:31:01;6.95;;;4.00;;
75356;SDS011;63946;51.986;5.930;2023-09-30T16:33:35;9.00;;;4.00;;
75356;SDS011;63946;51.986;5.930;2023-09-30T16:36:07;7.50;;;3.53;;
75356;SDS011;63946;51.986;5.930;2023-09-30T16:38:39;9.02;;;3.63;;
75356;SDS011;63946;51.986;5.930;2023-09-30T16:41:08;9.38;;;3.97;;
75356;SDS011;63946;51.986;5.930;2023-09-30T16:43:38;7.90;;;4.15;;
75356;SDS011;63946;51.986;5.930;2023-09-30T16:46:10;7.00;;;4.25;;
75356;SDS011;63946;51.986;5.930;2023-09-30T16:48:39;5.22;;;3.30;;
75356;SDS011;63946;51.986;5.930;2023-09-30T16:51:10;5.43;;;3.22;;
75356;SDS011;63946;51.986;5.930;2023-09-30T16:53:41;9.93;;;3.45;;
75356;SDS011;63946;51.986;5.930;2023-09-30T16:56:15;7.15;;;4.60;;
75356;SDS011;63946;51.986;5.930;2023-09-30T16:58:44;7.88;;;3.50;;
75356;SDS011;63946;51.986;5.930;2023-09-30T17:01:18;7.00;;;4.03;;
75356;SDS011;63946;51.986;5.930;2023-09-30T17:03:53;8.07;;;3.97;;
75356;SDS011;63946;51.986;5.930;2023-09-30T17:06:28;4.85;;;3.53;;
75356;SDS011;63946;51.986;5.930;2023-09-30T17:09:00;7.00;;;3.63;;
75356;SDS011;63946;51.986;5.930;2023-09-30T17:11:32;9.20;;;4.53;;
75356;SDS011;63946;51.986;5.930;2023-09-30T17:14:04;7.93;;;4.18;;
75356;SDS011;63946;51.986;5.930;2023-09-30T17:16:37;6.35;;;3.67;;
75356;SDS011;63946;51.986;5.930;2023-09-30T17:19:11;8.13;;;4.07;;
75356;SDS011;63946;51.986;5.930;2023-09-30T17:21:43;10.63;;;4.97;;
75356;SDS011;63946;51.986;5.930;2023-09-30T17:24:12;9.38;;;4.55;;
75356;SDS011;63946;51.986;5.930;2023-09-30T17:26:52;9.68;;;4.50;;
75356;SDS011;63946;51.986;5.930;2023-09-30T17:29:33;7.13;;;4.18;;
75356;SDS011;63946;51.986;5.930;2023-09-30T17:32:06;8.60;;;3.92;;
75356;SDS011;63946;51.986;5.930;2023-09-30T17:34:53;9.80;;;4.45;;
75356;SDS011;63946;51.986;5.930;2023-09-30T17:37:37;6.72;;;3.53;;
75356;SDS011;63946;51.986;5.930;2023-09-30T17:40:12;8.13;;;4.35;;
75356;SDS011;63946;51.986;5.930;2023-09-30T17:42:46;7.55;;;4.18;;
75356;SDS011;63946;51.986;5.930;2023-09-30T17:45:20;8.70;;;4.32;;
75356;SDS011;63946;51.986;5.930;2023-09-30T17:48:00;8.68;;;4.05;;
75356;SDS011;63946;51.986;5.930;2023-09-30T17:50:38;14.02;;;3.85;;
75356;SDS011;63946;51.986;5.930;2023-09-30T17:53:12;9.05;;;4.38;;
75356;SDS011;63946;51.986;5.930;2023-09-30T17:55:41;7.00;;;4.35;;
75356;SDS011;63946;51.986;5.930;2023-09-30T17:58:18;7.15;;;4.07;;
75356;SDS011;63946;51.986;5.930;2023-09-30T18:00:57;6.85;;;3.65;;
75356;SDS011;63946;51.986;5.930;2023-09-30T18:03:30;7.30;;;3.67;;
75356;SDS011;63946;51.986;5.930;2023-09-30T18:06:16;7.35;;;4.25;;
75356;SDS011;63946;51.986;5.930;2023-09-30T18:08:45;9.52;;;4.30;;
75356;SDS011;63946;51.986;5.930;2023-09-30T18:11:21;7.18;;;3.78;;
75356;SDS011;63946;51.986;5.930;2023-09-30T18:13:52;6.93;;;3.88;;
75356;SDS011;63946;51.986;5.930;2023-09-30T18:16:33;7.90;;;4.80;;
75356;SDS011;63946;51.986;5.930;2023-09-30T18:19:08;7.32;;;3.97;;
75356;SDS011;63946;51.986;5.930;2023-09-30T18:21:39;6.95;;;4.18;;
75356;SDS011;63946;51.986;5.930;2023-09-30T18:24:19;7.80;;;4.70;;
75356;SDS011;63946;51.986;5.930;2023-09-30T18:26:49;7.00;;;4.65;;
75356;SDS011;63946;51.986;5.930;2023-09-30T18:34:36;8.98;;;4.95;;
75356;SDS011;63946;51.986;5.930;2023-09-30T18:37:21;7.18;;;4.53;;
75356;SDS011;63946;51.986;5.930;2023-09-30T18:40:05;7.68;;;4.30;;
75356;SDS011;63946;51.986;5.930;2023-09-30T18:42:48;8.10;;;5.07;;
75356;SDS011;63946;51.986;5.930;2023-09-30T18:45:56;7.18;;;4.07;;
75356;SDS011;63946;51.986;5.930;2023-09-30T18:48:59;6.90;;;4.25;;
75356;SDS011;63946;51.986;5.930;2023-09-30T18:52:50;7.82;;;4.70;;
75356;SDS011;63946;51.986;5.930;2023-09-30T19:03:30;7.05;;;3.80;;
75356;SDS011;63946;51.986;5.930;2023-09-30T19:13:56;6.20;;;4.53;;
75356;SDS011;63946;51.986;5.930;2023-09-30T19:31:15;7.00;;;4.45;;
75356;SDS011;63946;51.986;5.930;2023-09-30T19:34:24;7.60;;;4.45;;
75356;SDS011;63946;51.986;5.930;2023-09-30T19:43:22;7.70;;;4.97;;
75356;SDS011;63946;51.986;5.930;2023-09-30T19:46:50;9.30;;;4.90;;
75356;SDS011;63946;51.986;5.930;2023-09-30T19:53:32;10.55;;;5.28;;
75356;SDS011;63946;51.986;5.930;2023-09-30T19:59:44;7.63;;;4.72;;
75356;SDS011;63946;51.986;5.930;2023-09-30T20:06:00;12.50;;;5.47;;
75356;SDS011;63946;51.986;5.930;2023-09-30T20:19:22;7.38;;;4.97;;
75356;SDS011;63946;51.986;5.930;2023-09-30T20:22:18;9.38;;;5.18;;
75356;SDS011;63946;51.986;5.930;2023-09-30T20:25:13;8.45;;;5.47;;
75356;SDS011;63946;51.986;5.930;2023-09-30T20:28:09;7.45;;;5.32;;
75356;SDS011;63946;51.986;5.930;2023-09-30T20:31:09;9.23;;;5.57;;
75356;SDS011;63946;51.986;5.930;2023-09-30T20:37:19;7.07;;;4.97;;
75356;SDS011;63946;51.986;5.930;2023-09-30T20:40:13;7.80;;;4.78;;
75356;SDS011;63946;51.986;5.930;2023-09-30T20:43:15;7.03;;;5.20;;
75356;SDS011;63946;51.986;5.930;2023-09-30T20:46:32;6.88;;;5.05;;
75356;SDS011;63946;51.986;5.930;2023-09-30T20:49:40;8.07;;;4.75;;
75356;SDS011;63946;51.986;5.930;2023-09-30T20:52:44;7.40;;;5.07;;
75356;SDS011;63946;51.986;5.930;2023-09-30T20:59:38;8.23;;;5.13;;
75356;SDS011;63946;51.986;5.930;2023-09-30T21:02:46;8.10;;;4.57;;
75356;SDS011;63946;51.986;5.930;2023-09-30T21:05:46;9.25;;;5.90;;
75356;SDS011;63946;51.986;5.930;2023-09-30T21:08:54;8.98;;;5.70;;
75356;SDS011;63946;51.986;5.930;2023-09-30T21:12:06;7.72;;;5.15;;
75356;SDS011;63946;51.986;5.930;2023-09-30T21:15:41;9.73;;;5.47;;
75356;SDS011;63946;51.986;5.930;2023-09-30T21:19:19;9.18;;;5.07;;
75356;SDS011;63946;51.986;5.930;2023-09-30T21:22:26;8.70;;;4.88;;
